Time;durP1;ratioP1;P1;durP2;ratioP2;P2;SDS_P1;SDS_P2;PMS_P1;PMS_P2;Temp;Humidity;BMP_temperature;BMP_pressure;BME280_temperature;BME280_humidity;BME280_pressure;Samples;Min_cycle;Max_cycle;Signal;HPM_P1;HPM_P2
2023/07/16 00:00:24;;;;;;;9.15;8.07;;;;;;;;;;10493937;28;20031;-83
2023/07/16 00:05:25;;;;;;;10.38;7.95;;;;;;;;;;10485768;28;20032;-82
2023/07/16 00:10:26;;;;;;;10.40;7.90;;;;;;;;;;10484287;28;20032;-82
2023/07/16 00:15:27;;;;;;;9.82;8.20;;;;;;;;;;10489141;28;20373;-83
2023/07/16 00:20:28;;;;;;;10.10;7.97;;;;;;;;;;10483232;28;20082;-82
2023/07/16 00:25:29;;;;;;;10.68;8.13;;;;;;;;;;10499532;28;20423;-82
2023/07/16 00:30:30;;;;;;;12.75;8.98;;;;;;;;;;10498663;28;20047;-82
2023/07/16 00:35:31;;;;;;;8.75;7.85;;;;;;;;;;10484112;28;20110;-81
2023/07/16 00:40:32;;;;;;;10.40;8.10;;;;;;;;;;10484724;28;20119;-82
2023/07/16 00:45:33;;;;;;;10.18;8.00;;;;;;;;;;10495188;28;20385;-82
2023/07/16 00:50:39;;;;;;;9.52;8.05;;;;;;;;;;10490803;28;20024;-82
2023/07/16 00:55:40;;;;;;;;;;;;;;;;;;10493014;28;20038;-82
2023/07/16 01:00:41;;;;;;;9.18;7.78;;;;;;;;;;10494214;28;19939;-82
2023/07/16 01:05:48;;;;;;;8.70;7.80;;;;;;;;;;10506972;28;20032;-83
2023/07/16 01:10:50;;;;;;;9.65;8.18;;;;;;;;;;10477115;28;20037;-82
2023/07/16 01:15:51;;;;;;;10.07;8.10;;;;;;;;;;10491065;28;20380;-83
2023/07/16 01:20:51;;;;;;;9.98;8.50;;;;;;;;;;10497155;28;20032;-82
2023/07/16 01:26:22;;;;;;;9.52;7.80;;;;;;;;;;10495656;28;20040;-81
2023/07/16 01:31:23;;;;;;;10.48;7.85;;;;;;;;;;10476635;28;20051;-82
2023/07/16 01:36:25;;;;;;;11.45;8.02;;;;;;;;;;10492019;28;20560;-83
2023/07/16 01:41:26;;;;;;;9.88;7.90;;;;;;;;;;10497718;28;20685;-82
2023/07/16 01:46:27;;;;;;;10.02;7.65;;;;;;;;;;10492929;28;20035;-82
2023/07/16 01:51:28;;;;;;;8.73;7.38;;;;;;;;;;10487057;28;20048;-83
2023/07/16 01:56:29;;;;;;;10.77;7.72;;;;;;;;;;10497267;28;20039;-83
2023/07/16 02:01:30;;;;;;;9.93;8.02;;;;;;;;;;10488206;28;20064;-82
2023/07/16 02:06:31;;;;;;;8.82;7.15;;;;;;;;;;10487998;28;20884;-83
2023/07/16 02:11:32;;;;;;;11.27;7.63;;;;;;;;;;10488628;28;20036;-83
2023/07/16 02:16:33;;;;;;;10.00;8.60;;;;;;;;;;10494130;28;20180;-83
2023/07/16 02:21:34;;;;;;;10.75;8.10;;;;;;;;;;10487846;28;20035;-83
2023/07/16 02:26:35;;;;;;;10.13;7.88;;;;;;;;;;10495012;28;20036;-83
2023/07/16 02:31:36;;;;;;;11.63;8.40;;;;;;;;;;10492395;28;20037;-83
2023/07/16 02:36:37;;;;;;;9.60;7.90;;;;;;;;;;10486189;28;20089;-83
2023/07/16 02:41:38;;;;;;;8.73;6.97;;;;;;;;;;10487548;28;20502;-82
2023/07/16 02:46:39;;;;;;;11.10;8.13;;;;;;;;;;10486544;28;20074;-82
2023/07/16 02:51:40;;;;;;;7.90;7.05;;;;;;;;;;10486122;28;20599;-82
2023/07/16 02:56:41;;;;;;;10.98;7.35;;;;;;;;;;10490531;28;20028;-83
2023/07/16 03:01:42;;;;;;;10.55;7.80;;;;;;;;;;10487544;28;20468;-83
2023/07/16 03:06:43;;;;;;;10.57;8.27;;;;;;;;;;10485601;28;20028;-82
2023/07/16 03:11:44;;;;;;;11.27;8.65;;;;;;;;;;10488956;28;20048;-83
2023/07/16 03:16:45;;;;;;;10.35;8.05;;;;;;;;;;10490027;28;20495;-83
2023/07/16 03:21:48;;;;;;;12.82;8.60;;;;;;;;;;10489180;28;20109;-82
2023/07/16 03:26:49;;;;;;;14.20;9.43;;;;;;;;;;10490992;28;20368;-83
2023/07/16 03:31:50;;;;;;;11.13;8.93;;;;;;;;;;10489090;28;20049;-82
2023/07/16 03:36:52;;;;;;;15.38;9.60;;;;;;;;;;10485427;28;20056;-82
2023/07/16 03:41:53;;;;;;;10.38;8.27;;;;;;;;;;10489124;28;20032;-83
2023/07/16 03:46:54;;;;;;;12.13;9.10;;;;;;;;;;10498339;28;20036;-82
2023/07/16 03:51:55;;;;;;;11.38;8.75;;;;;;;;;;10484680;28;20040;-82
2023/07/16 03:56:56;;;;;;;12.15;9.00;;;;;;;;;;10484709;28;20035;-83
2023/07/16 04:01:57;;;;;;;13.93;9.02;;;;;;;;;;10471469;28;20107;-84
2023/07/16 04:06:58;;;;;;;13.13;9.73;;;;;;;;;;10488016;28;20032;-84
2023/07/16 04:11:59;;;;;;;10.57;8.85;;;;;;;;;;10482258;28;20045;-82
2023/07/16 04:17:00;;;;;;;9.95;8.45;;;;;;;;;;10483491;28;20074;-85
2023/07/16 04:22:01;;;;;;;13.32;8.93;;;;;;;;;;10488832;28;20028;-84
2023/07/16 04:27:02;;;;;;;11.00;8.93;;;;;;;;;;10490908;28;20067;-85
2023/07/16 04:32:03;;;;;;;11.65;8.73;;;;;;;;;;10491136;28;20582;-85
2023/07/16 04:37:04;;;;;;;10.52;7.88;;;;;;;;;;10491107;28;20052;-85
2023/07/16 04:42:05;;;;;;;12.45;8.73;;;;;;;;;;10492006;28;20078;-84
2023/07/16 04:47:06;;;;;;;12.80;7.60;;;;;;;;;;10491344;28;20025;-85
2023/07/16 04:52:07;;;;;;;9.15;7.90;;;;;;;;;;10491731;28;20119;-84
2023/07/16 04:57:09;;;;;;;11.68;8.10;;;;;;;;;;10475843;28;20103;-85
2023/07/16 05:02:09;;;;;;;11.32;8.40;;;;;;;;;;10478256;28;20027;-87
2023/07/16 05:07:11;;;;;;;11.70;9.52;;;;;;;;;;10475652;28;20383;-87
2023/07/16 05:12:12;;;;;;;10.43;8.27;;;;;;;;;;10489041;28;20041;-84
2023/07/16 05:17:13;;;;;;;10.57;8.20;;;;;;;;;;10490944;28;20039;-84
2023/07/16 05:22:14;;;;;;;8.93;7.68;;;;;;;;;;10488712;28;20059;-84
2023/07/16 05:27:15;;;;;;;11.73;8.93;;;;;;;;;;10489918;28;20024;-84
2023/07/16 05:32:16;;;;;;;10.60;8.55;;;;;;;;;;10488997;28;20059;-85
2023/07/16 05:37:17;;;;;;;11.18;8.55;;;;;;;;;;10488108;28;20082;-85
2023/07/16 05:42:18;;;;;;;12.98;9.15;;;;;;;;;;10487735;28;20036;-85
2023/07/16 05:47:19;;;;;;;10.15;8.98;;;;;;;;;;10487811;28;20058;-85
2023/07/16 05:52:20;;;;;;;9.43;8.15;;;;;;;;;;10487041;28;20440;-85
2023/07/16 05:57:21;;;;;;;8.98;8.00;;;;;;;;;;10488291;28;20122;-84
2023/07/16 06:02:22;;;;;;;9.88;8.27;;;;;;;;;;10488213;28;20024;-84
2023/07/16 06:07:23;;;;;;;10.25;7.97;;;;;;;;;;10488581;28;20017;-84
2023/07/16 06:12:24;;;;;;;10.40;8.20;;;;;;;;;;10474219;28;20811;-85
2023/07/16 06:17:25;;;;;;;9.95;7.50;;;;;;;;;;10486124;28;20024;-85
2023/07/16 06:22:26;;;;;;;7.25;6.55;;;;;;;;;;10488102;28;20101;-85
2023/07/16 06:27:27;;;;;;;9.45;6.35;;;;;;;;;;10487826;28;20614;-87
2023/07/16 06:32:28;;;;;;;6.70;5.95;;;;;;;;;;10502048;28;20043;-87
2023/07/16 06:37:29;;;;;;;9.20;6.10;;;;;;;;;;10487778;28;20056;-85
2023/07/16 06:42:32;;;;;;;7.72;6.35;;;;;;;;;;10485940;28;20103;-88
2023/07/16 06:47:33;;;;;;;7.75;6.38;;;;;;;;;;10484439;28;20107;-85
2023/07/16 06:52:34;;;;;;;9.05;6.00;;;;;;;;;;10538085;22;20056;-84
2023/07/16 06:57:35;;;;;;;9.65;6.28;;;;;;;;;;10524827;28;20021;-86
2023/07/16 07:02:37;;;;;;;6.80;5.80;;;;;;;;;;10527935;28;20707;-85
2023/07/16 07:07:38;;;;;;;8.13;6.25;;;;;;;;;;10525691;28;20028;-85
2023/07/16 07:12:39;;;;;;;9.15;6.25;;;;;;;;;;10522880;28;20116;-84
2023/07/16 07:17:42;;;;;;;9.77;6.53;;;;;;;;;;10525000;28;20035;-85
2023/07/16 07:22:43;;;;;;;6.43;5.82;;;;;;;;;;10524456;28;20119;-86
2023/07/16 07:27:44;;;;;;;8.40;7.50;;;;;;;;;;10525510;28;20649;-86
2023/07/16 07:32:45;;;;;;;8.30;7.00;;;;;;;;;;10524216;28;20043;-85
2023/07/16 07:37:46;;;;;;;7.28;6.57;;;;;;;;;;10539296;22;20090;-85
2023/07/16 07:42:47;;;;;;;9.38;7.53;;;;;;;;;;10507857;28;20028;-86
2023/07/16 07:47:48;;;;;;;8.20;7.40;;;;;;;;;;10525643;28;20549;-84
2023/07/16 07:52:49;;;;;;;8.50;7.50;;;;;;;;;;10507460;28;20082;-85
2023/07/16 07:57:50;;;;;;;8.77;7.38;;;;;;;;;;10504008;28;20042;-85
2023/07/16 08:02:51;;;;;;;8.45;7.55;;;;;;;;;;10500156;28;20047;-86
2023/07/16 08:07:53;;;;;;;8.75;7.50;;;;;;;;;;10553233;28;20035;-85
2023/07/16 08:12:54;;;;;;;8.68;7.30;;;;;;;;;;10562436;28;20387;-83
2023/07/16 08:17:59;;;;;;;9.27;7.53;;;;;;;;;;10559152;28;20039;-85
2023/07/16 08:22:59;;;;;;;9.10;8.20;;;;;;;;;;10535427;28;20020;-85
2023/07/16 08:28:03;;;;;;;10.30;9.30;;;;;;;;;;10548215;28;20051;-83
2023/07/16 08:33:04;;;;;;;13.15;9.93;;;;;;;;;;10522624;28;20059;-83
2023/07/16 08:38:09;;;;;;;11.25;10.05;;;;;;;;;;10534646;28;20121;-84
2023/07/16 08:43:12;;;;;;;10.48;9.10;;;;;;;;;;10523036;28;20153;-84
2023/07/16 08:48:13;;;;;;;10.15;9.15;;;;;;;;;;10515581;28;20667;-84
2023/07/16 08:53:16;;;;;;;9.77;8.82;;;;;;;;;;10517925;28;20082;-84
2023/07/16 08:58:17;;;;;;;10.95;8.63;;;;;;;;;;10509446;28;20122;-82
2023/07/16 09:03:18;;;;;;;10.85;9.77;;;;;;;;;;10525269;28;20421;-85
2023/07/16 09:08:19;;;;;;;9.90;8.90;;;;;;;;;;10547215;28;20031;-85
2023/07/16 09:13:20;;;;;;;10.50;7.28;;;;;;;;;;10564187;28;20041;-87
2023/07/16 09:18:22;;;;;;;7.80;6.88;;;;;;;;;;10532792;28;20024;-88
2023/07/16 09:23:26;;;;;;;8.10;7.30;;;;;;;;;;10539028;28;20076;-85
2023/07/16 09:28:27;;;;;;;9.50;7.88;;;;;;;;;;10537243;28;20110;-87
2023/07/16 09:33:29;;;;;;;7.90;6.90;;;;;;;;;;10536352;28;20044;-87
2023/07/16 09:38:30;;;;;;;8.00;7.22;;;;;;;;;;10535463;28;20602;-89
2023/07/16 09:43:34;;;;;;;7.18;6.10;;;;;;;;;;10522182;28;20024;-85
2023/07/16 09:48:35;;;;;;;9.50;5.90;;;;;;;;;;10509565;28;20027;-84
2023/07/16 09:53:37;;;;;;;6.57;5.55;;;;;;;;;;10525985;28;20403;-85
2023/07/16 09:58:38;;;;;;;6.38;5.57;;;;;;;;;;10525178;28;20028;-86
2023/07/16 10:03:49;;;;;;;7.05;5.60;;;;;;;;;;10520886;28;20035;-84
2023/07/16 10:08:50;;;;;;;7.25;5.65;;;;;;;;;;10530741;28;20067;-87
2023/07/16 10:13:52;;;;;;;6.22;5.65;;;;;;;;;;10520755;28;20037;-84
2023/07/16 10:18:53;;;;;;;7.15;6.35;;;;;;;;;;10534677;28;20028;-86
2023/07/16 10:23:58;;;;;;;7.82;5.85;;;;;;;;;;10533391;28;20669;-83
2023/07/16 10:29:00;;;;;;;7.15;5.70;;;;;;;;;;10522006;28;20101;-83
2023/07/16 10:34:04;;;;;;;7.47;5.95;;;;;;;;;;10537713;28;20046;-84
2023/07/16 10:39:06;;;;;;;8.10;5.93;;;;;;;;;;10524204;28;20377;-83
2023/07/16 10:44:09;;;;;;;6.63;5.18;;;;;;;;;;10532753;28;20024;-84
2023/07/16 10:49:10;;;;;;;8.68;5.50;;;;;;;;;;10524119;28;20016;-83
2023/07/16 10:54:11;;;;;;;7.15;5.53;;;;;;;;;;10512878;28;20028;-82
2023/07/16 10:59:12;;;;;;;6.93;5.72;;;;;;;;;;10532664;28;20036;-82
2023/07/16 11:04:13;;;;;;;6.05;5.38;;;;;;;;;;10537406;28;20093;-85
2023/07/16 11:09:14;;;;;;;6.38;4.65;;;;;;;;;;10525681;28;20090;-85
2023/07/16 11:14:15;;;;;;;6.50;4.90;;;;;;;;;;10526075;28;20036;-83
2023/07/16 11:19:20;;;;;;;7.15;4.88;;;;;;;;;;10524331;28;20038;-83
2023/07/16 11:24:21;;;;;;;5.53;5.03;;;;;;;;;;10527693;28;20035;-85
2023/07/16 11:29:22;;;;;;;170.10;152.02;;;;;;;;;;10526215;28;20024;-84
2023/07/16 11:34:23;;;;;;;11.63;8.80;;;;;;;;;;10533928;28;20036;-84
2023/07/16 11:39:29;;;;;;;4.70;4.25;;;;;;;;;;10524565;28;20062;-84
2023/07/16 11:44:34;;;;;;;8.68;5.03;;;;;;;;;;10526738;28;20077;-86
2023/07/16 11:49:35;;;;;;;5.20;4.50;;;;;;;;;;10519997;28;20504;-86
2023/07/16 11:54:36;;;;;;;4.82;4.40;;;;;;;;;;10523394;28;20036;-86
2023/07/16 11:59:37;;;;;;;4.13;3.72;;;;;;;;;;10523554;28;20028;-87
2023/07/16 12:04:38;;;;;;;5.70;4.32;;;;;;;;;;10520240;28;20024;-85
2023/07/16 12:09:39;;;;;;;5.65;4.85;;;;;;;;;;10516568;28;20038;-87
2023/07/16 12:14:40;;;;;;;6.55;5.38;;;;;;;;;;10525192;28;20032;-87
2023/07/16 12:19:41;;;;;;;11.25;5.82;;;;;;;;;;10525273;28;20057;-85
2023/07/16 12:24:42;;;;;;;5.68;5.07;;;;;;;;;;10524087;28;20036;-87
2023/07/16 12:29:43;;;;;;;5.63;5.00;;;;;;;;;;10524857;28;20932;-86
2023/07/16 12:34:45;;;;;;;5.35;4.75;;;;;;;;;;10523461;28;20044;-85
2023/07/16 12:39:46;;;;;;;5.65;4.47;;;;;;;;;;10523704;28;20048;-86
2023/07/16 12:44:49;;;;;;;5.70;5.20;;;;;;;;;;10529582;28;21198;-85
2023/07/16 12:49:50;;;;;;;8.60;4.93;;;;;;;;;;10516778;28;20135;-86
2023/07/16 12:54:51;;;;;;;6.38;5.13;;;;;;;;;;10530003;28;20365;-83
2023/07/16 12:59:52;;;;;;;6.15;4.95;;;;;;;;;;10523653;28;20115;-85
2023/07/16 13:04:53;;;;;;;6.28;5.68;;;;;;;;;;10529073;28;20438;-86
2023/07/16 13:09:54;;;;;;;6.75;5.07;;;;;;;;;;10537460;28;20032;-86
2023/07/16 13:14:55;;;;;;;6.57;5.40;;;;;;;;;;10547651;28;20475;-85
2023/07/16 13:19:56;;;;;;;7.10;5.10;;;;;;;;;;10539474;28;20027;-86
2023/07/16 13:24:57;;;;;;;5.32;4.82;;;;;;;;;;10538174;28;20035;-86
2023/07/16 13:29:58;;;;;;;11.07;5.57;;;;;;;;;;10554923;28;20450;-86
2023/07/16 13:34:59;;;;;;;7.20;5.25;;;;;;;;;;10538373;28;20089;-86
2023/07/16 13:40:01;;;;;;;8.50;5.18;;;;;;;;;;10539735;28;20569;-86
2023/07/16 13:45:03;;;;;;;6.40;5.38;;;;;;;;;;10532206;28;20058;-86
2023/07/16 13:50:04;;;;;;;6.68;5.70;;;;;;;;;;10544402;28;20039;-86
2023/07/16 13:55:06;;;;;;;8.68;5.95;;;;;;;;;;10540367;28;20031;-86
2023/07/16 14:00:09;;;;;;;7.80;5.97;;;;;;;;;;10533866;28;20028;-87
2023/07/16 14:05:10;;;;;;;7.22;6.18;;;;;;;;;;10534648;28;20032;-85
2023/07/16 14:10:11;;;;;;;6.78;5.75;;;;;;;;;;10526222;28;20040;-86
2023/07/16 14:15:12;;;;;;;7.80;6.50;;;;;;;;;;10529390;28;20027;-87
2023/07/16 14:20:13;;;;;;;8.32;5.95;;;;;;;;;;10529345;28;20036;-87
2023/07/16 14:25:15;;;;;;;7.38;6.00;;;;;;;;;;10532791;28;20360;-87
2023/07/16 14:30:16;;;;;;;8.02;7.22;;;;;;;;;;10557772;28;20020;-87
2023/07/16 14:35:17;;;;;;;7.88;6.68;;;;;;;;;;10535606;28;20089;-87
2023/07/16 14:40:19;;;;;;;7.53;6.78;;;;;;;;;;10541857;28;20063;-87
2023/07/16 14:45:20;;;;;;;7.40;6.47;;;;;;;;;;10547710;28;20491;-88
2023/07/16 14:50:21;;;;;;;8.00;6.82;;;;;;;;;;10535200;28;20040;-88
2023/07/16 14:55:22;;;;;;;8.07;6.20;;;;;;;;;;10519742;28;20110;-89
2023/07/16 15:00:24;;;;;;;7.75;6.57;;;;;;;;;;10518437;28;20551;-87
2023/07/16 15:05:25;;;;;;;8.85;6.63;;;;;;;;;;10525507;28;20127;-87
2023/07/16 15:10:26;;;;;;;10.02;7.00;;;;;;;;;;10521194;28;20097;-87
2023/07/16 15:15:27;;;;;;;10.25;7.55;;;;;;;;;;10531968;28;20104;-87
2023/07/16 15:20:28;;;;;;;10.02;6.32;;;;;;;;;;10518599;28;20032;-87
2023/07/16 15:25:29;;;;;;;7.70;6.30;;;;;;;;;;10523005;28;20028;-86
2023/07/16 15:36:09;;;;;;;6.82;6.07;;;;;;;;;;10520147;28;20020;-87
2023/07/16 15:41:11;;;;;;;6.75;5.45;;;;;;;;;;10510340;28;20044;-87
2023/07/16 15:46:12;;;;;;;6.30;5.70;;;;;;;;;;10523143;28;20016;-86
2023/07/16 15:51:13;;;;;;;7.57;6.05;;;;;;;;;;10508142;28;20040;-87
2023/07/16 15:56:15;;;;;;;7.88;6.55;;;;;;;;;;10503513;28;20036;-87
2023/07/16 16:01:16;;;;;;;7.60;6.35;;;;;;;;;;10516164;28;20062;-87
2023/07/16 16:06:17;;;;;;;7.35;6.55;;;;;;;;;;10520213;28;20023;-88
2023/07/16 16:11:18;;;;;;;7.65;6.88;;;;;;;;;;10523549;28;20051;-86
2023/07/16 16:16:57;;;;;;;6.60;5.82;;;;;;;;;;10517758;28;20111;-86
2023/07/16 16:22:04;;;;;;;6.90;6.22;;;;;;;;;;10524445;28;20028;-85
2023/07/16 16:27:08;;;;;;;8.18;7.07;;;;;;;;;;10540250;28;20036;-86
2023/07/16 16:32:27;;;;;;;6.78;5.57;;;;;;;;;;10527809;28;20044;-87
2023/07/16 16:37:28;;;;;;;6.90;6.10;;;;;;;;;;10537240;28;20052;-85
2023/07/16 16:42:29;;;;;;;7.82;6.65;;;;;;;;;;10545725;28;20085;-87
2023/07/16 16:47:31;;;;;;;9.65;7.13;;;;;;;;;;10518048;28;20040;-87
2023/07/16 16:52:47;;;;;;;7.05;6.35;;;;;;;;;;10533625;28;20115;-86
2023/07/16 16:57:51;;;;;;;8.98;7.75;;;;;;;;;;10559628;28;20677;-87
2023/07/16 17:02:52;;;;;;;8.15;6.72;;;;;;;;;;10556729;28;20035;-87
2023/07/16 17:08:01;;;;;;;7.68;6.88;;;;;;;;;;10538610;28;20518;-84
2023/07/16 17:13:03;;;;;;;8.57;7.70;;;;;;;;;;10532264;28;20466;-86
2023/07/16 17:18:04;;;;;;;8.68;7.35;;;;;;;;;;10540268;28;20044;-87
2023/07/16 17:23:06;;;;;;;9.82;8.77;;;;;;;;;;10531037;28;20028;-86
2023/07/16 17:28:10;;;;;;;9.60;8.05;;;;;;;;;;10536634;28;20169;-87
2023/07/16 17:33:11;;;;;;;9.05;8.15;;;;;;;;;;10526888;28;20054;-87
2023/07/16 17:38:12;;;;;;;9.35;7.90;;;;;;;;;;10566537;28;20052;-86
2023/07/16 17:43:13;;;;;;;8.32;7.10;;;;;;;;;;10536971;28;20395;-88
2023/07/16 17:48:14;;;;;;;6.07;4.72;;;;;;;;;;10524762;28;20036;-87
2023/07/16 17:53:16;;;;;;;5.22;4.03;;;;;;;;;;10517533;28;20041;-85
2023/07/16 17:58:17;;;;;;;4.95;3.45;;;;;;;;;;10530717;28;20035;-85
2023/07/16 18:03:19;;;;;;;3.83;3.10;;;;;;;;;;10529716;28;20692;-86
2023/07/16 18:08:20;;;;;;;3.40;2.90;;;;;;;;;;10528877;28;20012;-86
2023/07/16 18:13:22;;;;;;;3.17;2.88;;;;;;;;;;10530127;28;20036;-84
2023/07/16 18:18:24;;;;;;;7.93;3.38;;;;;;;;;;10524139;28;20024;-85
2023/07/16 18:23:25;;;;;;;4.57;3.55;;;;;;;;;;10525169;28;20100;-85
2023/07/16 18:28:27;;;;;;;2.90;2.55;;;;;;;;;;10527108;28;20032;-85
2023/07/16 18:33:28;;;;;;;3.78;2.78;;;;;;;;;;10526473;28;20052;-85
2023/07/16 18:38:29;;;;;;;4.68;2.95;;;;;;;;;;10527410;28;20039;-85
2023/07/16 18:43:30;;;;;;;6.55;2.83;;;;;;;;;;10527110;28;20138;-85
2023/07/16 18:48:32;;;;;;;3.10;2.80;;;;;;;;;;10525402;28;20369;-85
2023/07/16 18:53:35;;;;;;;4.20;3.05;;;;;;;;;;10528122;28;20035;-85
2023/07/16 18:58:45;;;;;;;3.40;3.10;;;;;;;;;;10542131;28;20028;-86
2023/07/16 19:03:46;;;;;;;3.03;2.50;;;;;;;;;;10522363;28;20042;-85
2023/07/16 19:08:47;;;;;;;4.80;3.30;;;;;;;;;;10545270;28;20053;-89
2023/07/16 19:13:49;;;;;;;4.25;2.90;;;;;;;;;;10558728;28;20049;-87
2023/07/16 19:18:50;;;;;;;3.70;3.40;;;;;;;;;;10540511;28;20380;-88
2023/07/16 19:23:51;;;;;;;7.07;3.50;;;;;;;;;;10524273;28;20061;-88
2023/07/16 19:28:53;;;;;;;5.70;3.53;;;;;;;;;;10514923;28;20040;-86
2023/07/16 19:33:54;;;;;;;5.25;3.42;;;;;;;;;;10522472;28;20134;-85
2023/07/16 19:38:55;;;;;;;4.00;3.60;;;;;;;;;;10529528;28;20059;-86
2023/07/16 19:43:56;;;;;;;4.50;3.72;;;;;;;;;;10515264;28;20039;-87
2023/07/16 19:48:57;;;;;;;4.50;3.22;;;;;;;;;;10535838;28;20032;-87
2023/07/16 19:53:59;;;;;;;3.83;3.40;;;;;;;;;;10538349;28;20058;-88
2023/07/16 19:59:00;;;;;;;5.32;3.60;;;;;;;;;;10541981;28;20534;-86
2023/07/16 20:04:01;;;;;;;9.38;3.75;;;;;;;;;;10543901;28;20069;-86
2023/07/16 20:09:04;;;;;;;7.53;3.50;;;;;;;;;;10526039;28;20084;-88
2023/07/16 20:14:05;;;;;;;3.75;3.42;;;;;;;;;;10534004;28;20066;-85
2023/07/16 20:19:06;;;;;;;5.07;3.88;;;;;;;;;;10545722;28;20027;-85
2023/07/16 20:24:09;;;;;;;6.20;3.97;;;;;;;;;;10568387;28;20114;-84
2023/07/16 20:29:10;;;;;;;6.53;4.38;;;;;;;;;;10543902;28;20463;-84
2023/07/16 20:34:11;;;;;;;3.80;3.40;;;;;;;;;;10566225;28;20089;-84
2023/07/16 20:39:12;;;;;;;4.53;3.53;;;;;;;;;;10567074;28;20060;-84
2023/07/16 20:44:13;;;;;;;4.03;3.63;;;;;;;;;;10565878;27;20462;-84
2023/07/16 20:49:14;;;;;;;4.45;3.78;;;;;;;;;;10572629;28;20031;-84
2023/07/16 20:54:15;;;;;;;5.13;3.90;;;;;;;;;;10560326;28;20075;-83
2023/07/16 20:59:16;;;;;;;6.10;4.30;;;;;;;;;;10530873;28;20036;-84
2023/07/16 21:04:17;;;;;;;3.63;3.33;;;;;;;;;;10557316;28;20039;-83
2023/07/16 21:09:18;;;;;;;3.95;3.60;;;;;;;;;;10559589;28;20039;-84
2023/07/16 21:14:19;;;;;;;5.35;3.40;;;;;;;;;;10542294;27;20036;-83
2023/07/16 21:19:20;;;;;;;6.75;3.53;;;;;;;;;;10532931;28;20459;-83
2023/07/16 21:24:23;;;;;;;5.20;3.92;;;;;;;;;;10559492;28;20031;-83
2023/07/16 21:29:24;;;;;;;4.15;3.67;;;;;;;;;;10532860;27;20024;-83
2023/07/16 21:34:25;;;;;;;3.95;3.55;;;;;;;;;;10526690;28;20434;-83
2023/07/16 21:39:26;;;;;;;5.30;3.92;;;;;;;;;;10562725;28;20051;-83
2023/07/16 21:44:27;;;;;;;5.38;4.07;;;;;;;;;;10560756;28;20024;-82
2023/07/16 21:49:28;;;;;;;4.25;3.72;;;;;;;;;;10567304;28;20023;-82
2023/07/16 21:54:33;;;;;;;4.68;4.07;;;;;;;;;;10564308;28;20123;-83
2023/07/16 21:59:34;;;;;;;5.17;3.73;;;;;;;;;;10539306;28;20032;-84
2023/07/16 22:04:35;;;;;;;4.28;3.88;;;;;;;;;;10550361;28;20100;-84
2023/07/16 22:09:36;;;;;;;5.53;3.95;;;;;;;;;;10567859;28;20080;-83
2023/07/16 22:14:36;;;;;;;4.03;3.63;;;;;;;;;;10560209;28;20046;-83
2023/07/16 22:19:38;;;;;;;4.20;3.75;;;;;;;;;;10557812;28;20497;-83
2023/07/16 22:24:40;;;;;;;4.75;3.67;;;;;;;;;;10535195;28;20024;-83
2023/07/16 22:29:41;;;;;;;5.68;4.00;;;;;;;;;;10527608;28;20158;-83
2023/07/16 22:34:44;;;;;;;4.43;4.00;;;;;;;;;;10536389;28;20032;-83
2023/07/16 22:39:45;;;;;;;5.03;4.18;;;;;;;;;;10568708;28;20686;-84
2023/07/16 22:44:47;;;;;;;4.82;4.05;;;;;;;;;;10556999;28;20035;-84
2023/07/16 22:49:48;;;;;;;5.55;4.07;;;;;;;;;;10539511;28;20031;-84
2023/07/16 22:54:49;;;;;;;5.90;4.60;;;;;;;;;;10560000;28;20036;-83
2023/07/16 22:59:50;;;;;;;5.13;4.45;;;;;;;;;;10525593;28;20404;-83
2023/07/16 23:04:51;;;;;;;5.95;4.38;;;;;;;;;;10526229;28;20035;-84
2023/07/16 23:09:52;;;;;;;5.47;4.95;;;;;;;;;;10553838;28;20394;-84
2023/07/16 23:14:53;;;;;;;5.32;4.82;;;;;;;;;;10528880;28;20055;-84
2023/07/16 23:19:54;;;;;;;5.90;4.43;;;;;;;;;;10549489;28;20042;-83
2023/07/16 23:24:55;;;;;;;5.32;4.55;;;;;;;;;;10535885;28;20267;-83
2023/07/16 23:29:56;;;;;;;8.13;5.25;;;;;;;;;;10544593;28;20056;-83
2023/07/16 23:34:57;;;;;;;6.65;5.40;;;;;;;;;;10534105;28;20066;-84
2023/07/16 23:39:58;;;;;;;9.80;5.20;;;;;;;;;;10539691;28;20123;-84
2023/07/16 23:45:01;;;;;;;5.78;5.10;;;;;;;;;;10537622;28;20036;-84
2023/07/16 23:50:10;;;;;;;6.68;4.60;;;;;;;;;;10538171;28;20028;-84
2023/07/16 23:55:11;;;;;;;5.45;4.95;;;;;;;;;;10559746;28;20506;-84
